Terminal Aerodrome Forecast
Issued by NWS Amarillo, TX

Home | Current Version | Previous Version | Text Only | Print | Product List | Glossary On
Versions: 1 2 3 4 5 6 7 8 9 10 11 12 13 14 15 16 17 18
000
FTUS44 KAMA 240700 AAA
TAFAMA
TAF AMD
KAMA 240705Z 2407/2506 27012KT P6SM FEW150
     FM240800 35028G40KT 2SM BLDU OVC009
     FM241400 34022G31KT P6SM SCT040
     FM242000 25008KT P6SM SCT200=

USA.gov is the U.S. government's official web portal to all federal, state and local government web resources and services.